sensor_id;sensor_type;location;lat;lon;timestamp;temperature;humidity
16505;HTU21D;8365;51.030;4.696;2024-01-27T00:02:11;5.18;118.99
16505;HTU21D;8365;51.030;4.696;2024-01-27T00:04:42;5.01;118.99
16505;HTU21D;8365;51.030;4.696;2024-01-27T00:07:12;4.98;118.99
16505;HTU21D;8365;51.030;4.696;2024-01-27T00:09:45;5.06;118.99
16505;HTU21D;8365;51.030;4.696;2024-01-27T00:12:16;5.07;118.99
16505;HTU21D;8365;51.030;4.696;2024-01-27T00:14:46;5.08;118.99
16505;HTU21D;8365;51.030;4.696;2024-01-27T00:17:17;5.01;118.99
16505;HTU21D;8365;51.030;4.696;2024-01-27T00:19:47;4.74;118.99
16505;HTU21D;8365;51.030;4.696;2024-01-27T00:22:18;4.64;118.99
16505;HTU21D;8365;51.030;4.696;2024-01-27T00:24:48;4.56;118.99
16505;HTU21D;8365;51.030;4.696;2024-01-27T00:27:19;4.50;118.99
16505;HTU21D;8365;51.030;4.696;2024-01-27T00:29:49;4.50;118.99
16505;HTU21D;8365;51.030;4.696;2024-01-27T00:32:20;4.54;118.99
16505;HTU21D;8365;51.030;4.696;2024-01-27T00:34:52;4.54;118.99
16505;HTU21D;8365;51.030;4.696;2024-01-27T00:37:23;4.45;118.99
16505;HTU21D;8365;51.030;4.696;2024-01-27T00:39:53;4.36;118.99
16505;HTU21D;8365;51.030;4.696;2024-01-27T00:42:24;4.19;118.99
16505;HTU21D;8365;51.030;4.696;2024-01-27T00:44:55;4.12;118.99
16505;HTU21D;8365;51.030;4.696;2024-01-27T00:47:25;4.18;118.99
16505;HTU21D;8365;51.030;4.696;2024-01-27T00:49:56;4.28;118.99
16505;HTU21D;8365;51.030;4.696;2024-01-27T00:52:26;4.23;118.99
16505;HTU21D;8365;51.030;4.696;2024-01-27T00:54:57;4.27;118.99
16505;HTU21D;8365;51.030;4.696;2024-01-27T00:57:27;4.48;118.99
16505;HTU21D;8365;51.030;4.696;2024-01-27T00:59:58;4.46;118.99
16505;HTU21D;8365;51.030;4.696;2024-01-27T01:02:28;4.38;118.99
16505;HTU21D;8365;51.030;4.696;2024-01-27T01:04:59;4.43;118.99
16505;HTU21D;8365;51.030;4.696;2024-01-27T01:07:30;4.29;118.99
16505;HTU21D;8365;51.030;4.696;2024-01-27T01:10:01;4.35;118.99
16505;HTU21D;8365;51.030;4.696;2024-01-27T01:12:31;4.36;118.99
16505;HTU21D;8365;51.030;4.696;2024-01-27T01:15:02;4.43;118.99
16505;HTU21D;8365;51.030;4.696;2024-01-27T01:17:32;4.46;118.99
16505;HTU21D;8365;51.030;4.696;2024-01-27T01:20:03;4.47;118.99
16505;HTU21D;8365;51.030;4.696;2024-01-27T01:22:34;4.48;118.99
16505;HTU21D;8365;51.030;4.696;2024-01-27T01:25:05;4.51;118.99
16505;HTU21D;8365;51.030;4.696;2024-01-27T01:27:36;4.35;118.99
16505;HTU21D;8365;51.030;4.696;2024-01-27T01:30:06;4.21;118.99
16505;HTU21D;8365;51.030;4.696;2024-01-27T01:32:37;4.23;118.99
16505;HTU21D;8365;51.030;4.696;2024-01-27T01:35:08;4.19;118.99
16505;HTU21D;8365;51.030;4.696;2024-01-27T01:37:41;4.22;118.99
16505;HTU21D;8365;51.030;4.696;2024-01-27T01:40:11;4.15;118.99
16505;HTU21D;8365;51.030;4.696;2024-01-27T01:42:42;3.92;118.99
16505;HTU21D;8365;51.030;4.696;2024-01-27T01:45:13;3.95;118.99
16505;HTU21D;8365;51.030;4.696;2024-01-27T01:47:44;3.93;118.99
16505;HTU21D;8365;51.030;4.696;2024-01-27T01:50:15;3.84;118.99
16505;HTU21D;8365;51.030;4.696;2024-01-27T01:52:47;3.70;118.99
16505;HTU21D;8365;51.030;4.696;2024-01-27T01:55:18;3.53;118.99
16505;HTU21D;8365;51.030;4.696;2024-01-27T01:57:51;3.48;118.99
16505;HTU21D;8365;51.030;4.696;2024-01-27T02:00:22;3.47;118.99
16505;HTU21D;8365;51.030;4.696;2024-01-27T02:02:53;3.54;118.99
16505;HTU21D;8365;51.030;4.696;2024-01-27T02:05:23;3.57;118.99
16505;HTU21D;8365;51.030;4.696;2024-01-27T02:07:53;3.62;118.99
16505;HTU21D;8365;51.030;4.696;2024-01-27T02:10:26;3.53;118.99
16505;HTU21D;8365;51.030;4.696;2024-01-27T02:12:57;3.52;118.99
16505;HTU21D;8365;51.030;4.696;2024-01-27T02:15:28;3.50;118.99
16505;HTU21D;8365;51.030;4.696;2024-01-27T02:17:58;3.55;118.99
16505;HTU21D;8365;51.030;4.696;2024-01-27T02:20:29;3.50;118.99
16505;HTU21D;8365;51.030;4.696;2024-01-27T02:23:01;3.52;118.99
16505;HTU21D;8365;51.030;4.696;2024-01-27T02:25:35;3.55;118.99
16505;HTU21D;8365;51.030;4.696;2024-01-27T02:28:06;3.54;118.99
16505;HTU21D;8365;51.030;4.696;2024-01-27T02:30:39;3.33;118.99
16505;HTU21D;8365;51.030;4.696;2024-01-27T02:33:09;3.34;118.99
16505;HTU21D;8365;51.030;4.696;2024-01-27T02:35:40;3.20;118.99
16505;HTU21D;8365;51.030;4.696;2024-01-27T02:38:11;3.21;118.99
16505;HTU21D;8365;51.030;4.696;2024-01-27T02:40:41;3.21;118.99
16505;HTU21D;8365;51.030;4.696;2024-01-27T02:43:11;3.27;118.99
16505;HTU21D;8365;51.030;4.696;2024-01-27T02:45:42;3.20;118.99
16505;HTU21D;8365;51.030;4.696;2024-01-27T02:48:12;3.17;118.99
16505;HTU21D;8365;51.030;4.696;2024-01-27T02:50:43;3.11;118.99
16505;HTU21D;8365;51.030;4.696;2024-01-27T02:53:16;3.08;118.99
16505;HTU21D;8365;51.030;4.696;2024-01-27T02:55:49;3.12;118.99
16505;HTU21D;8365;51.030;4.696;2024-01-27T02:58:19;2.99;118.99
16505;HTU21D;8365;51.030;4.696;2024-01-27T03:00:52;3.13;118.99
16505;HTU21D;8365;51.030;4.696;2024-01-27T03:03:23;3.15;118.99
16505;HTU21D;8365;51.030;4.696;2024-01-27T03:05:53;3.14;118.99
16505;HTU21D;8365;51.030;4.696;2024-01-27T03:08:23;3.14;118.99
16505;HTU21D;8365;51.030;4.696;2024-01-27T03:10:54;3.03;118.99
16505;HTU21D;8365;51.030;4.696;2024-01-27T03:13:25;3.05;118.99
16505;HTU21D;8365;51.030;4.696;2024-01-27T03:15:58;3.19;118.99
16505;HTU21D;8365;51.030;4.696;2024-01-27T03:18:28;3.29;118.99
16505;HTU21D;8365;51.030;4.696;2024-01-27T03:20:59;3.24;118.99
16505;HTU21D;8365;51.030;4.696;2024-01-27T03:23:29;3.15;118.99
16505;HTU21D;8365;51.030;4.696;2024-01-27T03:26:02;3.02;118.99
16505;HTU21D;8365;51.030;4.696;2024-01-27T03:28:32;3.06;118.99
16505;HTU21D;8365;51.030;4.696;2024-01-27T03:31:03;3.15;118.99
16505;HTU21D;8365;51.030;4.696;2024-01-27T03:33:33;2.94;118.99
16505;HTU21D;8365;51.030;4.696;2024-01-27T03:36:12;2.89;118.99
16505;HTU21D;8365;51.030;4.696;2024-01-27T03:38:43;3.05;118.99
16505;HTU21D;8365;51.030;4.696;2024-01-27T03:41:13;3.05;118.99
16505;HTU21D;8365;51.030;4.696;2024-01-27T03:43:44;2.97;118.99
16505;HTU21D;8365;51.030;4.696;2024-01-27T03:46:14;2.89;118.99
16505;HTU21D;8365;51.030;4.696;2024-01-27T03:48:45;3.03;118.99
16505;HTU21D;8365;51.030;4.696;2024-01-27T03:51:15;3.03;118.99
16505;HTU21D;8365;51.030;4.696;2024-01-27T03:53:46;2.99;118.99
16505;HTU21D;8365;51.030;4.696;2024-01-27T03:56:16;2.70;118.99
16505;HTU21D;8365;51.030;4.696;2024-01-27T03:58:47;2.80;118.99
16505;HTU21D;8365;51.030;4.696;2024-01-27T04:01:17;2.98;118.99
16505;HTU21D;8365;51.030;4.696;2024-01-27T04:03:48;3.03;118.99
16505;HTU21D;8365;51.030;4.696;2024-01-27T04:06:18;3.10;118.99
16505;HTU21D;8365;51.030;4.696;2024-01-27T04:08:49;2.96;118.99
16505;HTU21D;8365;51.030;4.696;2024-01-27T04:11:20;2.98;118.99
16505;HTU21D;8365;51.030;4.696;2024-01-27T04:13:51;2.87;118.99
16505;HTU21D;8365;51.030;4.696;2024-01-27T04:16:22;2.69;118.99
16505;HTU21D;8365;51.030;4.696;2024-01-27T04:18:52;2.80;118.99
16505;HTU21D;8365;51.030;4.696;2024-01-27T04:21:23;2.82;118.99
16505;HTU21D;8365;51.030;4.696;2024-01-27T04:23:53;2.86;118.99
16505;HTU21D;8365;51.030;4.696;2024-01-27T04:26:27;2.85;118.99
16505;HTU21D;8365;51.030;4.696;2024-01-27T04:28:57;2.88;118.99
16505;HTU21D;8365;51.030;4.696;2024-01-27T04:31:28;2.59;118.99
16505;HTU21D;8365;51.030;4.696;2024-01-27T04:33:58;2.42;118.99
16505;HTU21D;8365;51.030;4.696;2024-01-27T04:36:33;2.40;118.99
16505;HTU21D;8365;51.030;4.696;2024-01-27T04:39:04;2.52;118.99
16505;HTU21D;8365;51.030;4.696;2024-01-27T04:41:34;2.51;118.99
16505;HTU21D;8365;51.030;4.696;2024-01-27T04:44:04;2.56;118.99
16505;HTU21D;8365;51.030;4.696;2024-01-27T04:46:35;2.78;118.99
16505;HTU21D;8365;51.030;4.696;2024-01-27T04:49:05;2.78;118.99
16505;HTU21D;8365;51.030;4.696;2024-01-27T04:51:38;2.85;118.99
16505;HTU21D;8365;51.030;4.696;2024-01-27T04:54:09;2.76;118.99
16505;HTU21D;8365;51.030;4.696;2024-01-27T04:56:40;2.80;118.99
16505;HTU21D;8365;51.030;4.696;2024-01-27T04:59:10;2.82;118.99
16505;HTU21D;8365;51.030;4.696;2024-01-27T05:01:44;2.85;118.99
16505;HTU21D;8365;51.030;4.696;2024-01-27T05:04:15;2.83;118.99
16505;HTU21D;8365;51.030;4.696;2024-01-27T05:06:46;2.73;118.99
16505;HTU21D;8365;51.030;4.696;2024-01-27T05:09:16;2.59;118.99
16505;HTU21D;8365;51.030;4.696;2024-01-27T05:11:47;2.58;118.99
16505;HTU21D;8365;51.030;4.696;2024-01-27T05:14:19;2.65;118.99
16505;HTU21D;8365;51.030;4.696;2024-01-27T05:16:49;2.53;118.99
16505;HTU21D;8365;51.030;4.696;2024-01-27T05:19:22;2.51;118.99
16505;HTU21D;8365;51.030;4.696;2024-01-27T05:21:53;2.61;118.99
16505;HTU21D;8365;51.030;4.696;2024-01-27T05:24:25;2.45;118.99
16505;HTU21D;8365;51.030;4.696;2024-01-27T05:26:56;2.41;118.99
16505;HTU21D;8365;51.030;4.696;2024-01-27T05:29:29;2.47;118.99
16505;HTU21D;8365;51.030;4.696;2024-01-27T05:31:59;2.52;118.99
16505;HTU21D;8365;51.030;4.696;2024-01-27T05:34:30;2.59;118.99
16505;HTU21D;8365;51.030;4.696;2024-01-27T05:37:00;2.47;118.99
16505;HTU21D;8365;51.030;4.696;2024-01-27T05:39:31;2.44;118.99
16505;HTU21D;8365;51.030;4.696;2024-01-27T05:42:02;2.37;118.99
16505;HTU21D;8365;51.030;4.696;2024-01-27T05:44:35;2.28;118.99
16505;HTU21D;8365;51.030;4.696;2024-01-27T05:47:07;2.19;118.99
16505;HTU21D;8365;51.030;4.696;2024-01-27T05:49:41;2.34;118.99
16505;HTU21D;8365;51.030;4.696;2024-01-27T05:52:11;2.36;118.99
16505;HTU21D;8365;51.030;4.696;2024-01-27T05:54:42;2.27;118.99
16505;HTU21D;8365;51.030;4.696;2024-01-27T05:57:12;2.29;118.99
16505;HTU21D;8365;51.030;4.696;2024-01-27T05:59:43;2.23;118.99
16505;HTU21D;8365;51.030;4.696;2024-01-27T06:02:13;2.25;118.99
16505;HTU21D;8365;51.030;4.696;2024-01-27T06:04:48;2.26;118.99
16505;HTU21D;8365;51.030;4.696;2024-01-27T06:07:18;2.34;118.99
16505;HTU21D;8365;51.030;4.696;2024-01-27T06:09:51;2.40;118.99
16505;HTU21D;8365;51.030;4.696;2024-01-27T06:12:24;2.41;118.99
16505;HTU21D;8365;51.030;4.696;2024-01-27T06:14:55;2.34;118.99
16505;HTU21D;8365;51.030;4.696;2024-01-27T06:17:27;2.30;118.99
16505;HTU21D;8365;51.030;4.696;2024-01-27T06:19:58;2.32;118.99
16505;HTU21D;8365;51.030;4.696;2024-01-27T06:22:28;2.27;118.99
16505;HTU21D;8365;51.030;4.696;2024-01-27T06:25:01;2.24;118.99
16505;HTU21D;8365;51.030;4.696;2024-01-27T06:27:32;2.17;118.99
16505;HTU21D;8365;51.030;4.696;2024-01-27T06:30:04;2.15;118.99
16505;HTU21D;8365;51.030;4.696;2024-01-27T06:32:34;2.07;118.99
16505;HTU21D;8365;51.030;4.696;2024-01-27T06:35:05;2.03;118.99
16505;HTU21D;8365;51.030;4.696;2024-01-27T06:37:35;2.03;118.99
16505;HTU21D;8365;51.030;4.696;2024-01-27T06:40:06;2.09;118.99
16505;HTU21D;8365;51.030;4.696;2024-01-27T06:42:39;2.02;118.99
16505;HTU21D;8365;51.030;4.696;2024-01-27T06:45:09;2.02;118.99
16505;HTU21D;8365;51.030;4.696;2024-01-27T06:47:40;2.13;118.99
16505;HTU21D;8365;51.030;4.696;2024-01-27T06:50:13;2.15;118.99
16505;HTU21D;8365;51.030;4.696;2024-01-27T06:52:44;2.11;118.99
16505;HTU21D;8365;51.030;4.696;2024-01-27T06:55:16;2.02;118.99
16505;HTU21D;8365;51.030;4.696;2024-01-27T06:57:46;2.06;118.99
16505;HTU21D;8365;51.030;4.696;2024-01-27T07:00:17;2.05;118.99
16505;HTU21D;8365;51.030;4.696;2024-01-27T07:02:48;2.11;118.99
16505;HTU21D;8365;51.030;4.696;2024-01-27T07:05:18;2.11;118.99
16505;HTU21D;8365;51.030;4.696;2024-01-27T07:07:49;2.07;118.99
16505;HTU21D;8365;51.030;4.696;2024-01-27T07:10:20;2.12;118.99
16505;HTU21D;8365;51.030;4.696;2024-01-27T07:12:50;2.19;118.99
16505;HTU21D;8365;51.030;4.696;2024-01-27T07:15:21;2.13;118.99
16505;HTU21D;8365;51.030;4.696;2024-01-27T07:17:51;2.02;118.99
16505;HTU21D;8365;51.030;4.696;2024-01-27T07:20:22;2.03;118.99
16505;HTU21D;8365;51.030;4.696;2024-01-27T07:22:54;1.97;118.99
16505;HTU21D;8365;51.030;4.696;2024-01-27T07:25:25;1.93;118.99
16505;HTU21D;8365;51.030;4.696;2024-01-27T07:27:55;1.99;118.99
16505;HTU21D;8365;51.030;4.696;2024-01-27T07:30:25;2.10;118.99
16505;HTU21D;8365;51.030;4.696;2024-01-27T07:32:56;2.10;118.99
16505;HTU21D;8365;51.030;4.696;2024-01-27T07:35:27;2.00;118.99
16505;HTU21D;8365;51.030;4.696;2024-01-27T07:37:57;1.94;118.99
16505;HTU21D;8365;51.030;4.696;2024-01-27T07:40:27;1.99;118.99
16505;HTU21D;8365;51.030;4.696;2024-01-27T07:42:58;1.96;118.99
16505;HTU21D;8365;51.030;4.696;2024-01-27T07:45:28;2.11;118.99
16505;HTU21D;8365;51.030;4.696;2024-01-27T07:47:59;2.23;118.99
16505;HTU21D;8365;51.030;4.696;2024-01-27T07:50:29;2.16;118.99
16505;HTU21D;8365;51.030;4.696;2024-01-27T07:53:01;2.21;118.99
16505;HTU21D;8365;51.030;4.696;2024-01-27T07:55:36;2.26;118.99
16505;HTU21D;8365;51.030;4.696;2024-01-27T07:58:06;2.23;118.99
16505;HTU21D;8365;51.030;4.696;2024-01-27T08:00:37;2.24;118.99
16505;HTU21D;8365;51.030;4.696;2024-01-27T08:03:08;2.54;118.99
16505;HTU21D;8365;51.030;4.696;2024-01-27T08:05:38;2.56;118.99
16505;HTU21D;8365;51.030;4.696;2024-01-27T08:08:09;2.66;118.99
16505;HTU21D;8365;51.030;4.696;2024-01-27T08:10:39;2.94;118.99
16505;HTU21D;8365;51.030;4.696;2024-01-27T08:13:10;3.09;118.99
16505;HTU21D;8365;51.030;4.696;2024-01-27T08:15:40;2.93;118.99
16505;HTU21D;8365;51.030;4.696;2024-01-27T08:18:11;2.96;118.99
16505;HTU21D;8365;51.030;4.696;2024-01-27T08:20:42;2.94;118.99
16505;HTU21D;8365;51.030;4.696;2024-01-27T08:23:12;2.90;118.99
16505;HTU21D;8365;51.030;4.696;2024-01-27T08:25:43;2.99;118.99
16505;HTU21D;8365;51.030;4.696;2024-01-27T08:28:17;3.20;118.99
16505;HTU21D;8365;51.030;4.696;2024-01-27T08:30:48;3.38;118.99
16505;HTU21D;8365;51.030;4.696;2024-01-27T08:33:18;3.42;118.99
16505;HTU21D;8365;51.030;4.696;2024-01-27T08:35:51;3.83;118.99
16505;HTU21D;8365;51.030;4.696;2024-01-27T08:38:22;3.57;118.99
16505;HTU21D;8365;51.030;4.696;2024-01-27T08:40:52;3.68;118.99
16505;HTU21D;8365;51.030;4.696;2024-01-27T08:43:23;3.52;118.99
16505;HTU21D;8365;51.030;4.696;2024-01-27T08:45:54;3.36;118.99
16505;HTU21D;8365;51.030;4.696;2024-01-27T08:48:25;3.61;118.99
16505;HTU21D;8365;51.030;4.696;2024-01-27T08:50:55;4.04;118.99
16505;HTU21D;8365;51.030;4.696;2024-01-27T08:53:26;3.91;118.99
16505;HTU21D;8365;51.030;4.696;2024-01-27T08:55:56;4.10;118.99
16505;HTU21D;8365;51.030;4.696;2024-01-27T08:58:27;4.03;118.99
16505;HTU21D;8365;51.030;4.696;2024-01-27T09:00:57;4.22;118.99
16505;HTU21D;8365;51.030;4.696;2024-01-27T09:03:27;4.84;118.99
16505;HTU21D;8365;51.030;4.696;2024-01-27T09:05:58;5.09;118.99
16505;HTU21D;8365;51.030;4.696;2024-01-27T09:08:28;5.17;118.99
16505;HTU21D;8365;51.030;4.696;2024-01-27T09:10:59;5.05;118.99
16505;HTU21D;8365;51.030;4.696;2024-01-27T09:13:30;4.84;118.99
16505;HTU21D;8365;51.030;4.696;2024-01-27T09:16:00;5.02;118.99
16505;HTU21D;8365;51.030;4.696;2024-01-27T09:18:31;5.45;118.99
16505;HTU21D;8365;51.030;4.696;2024-01-27T09:21:01;5.25;118.99
16505;HTU21D;8365;51.030;4.696;2024-01-27T09:23:32;5.23;118.99
16505;HTU21D;8365;51.030;4.696;2024-01-27T09:26:02;5.59;118.99
16505;HTU21D;8365;51.030;4.696;2024-01-27T09:28:33;5.57;118.99
16505;HTU21D;8365;51.030;4.696;2024-01-27T09:31:04;5.70;118.99
16505;HTU21D;8365;51.030;4.696;2024-01-27T09:33:35;6.42;118.99
16505;HTU21D;8365;51.030;4.696;2024-01-27T09:36:06;7.11;118.99
16505;HTU21D;8365;51.030;4.696;2024-01-27T09:38:36;7.14;118.99
16505;HTU21D;8365;51.030;4.696;2024-01-27T09:41:07;7.44;118.99
16505;HTU21D;8365;51.030;4.696;2024-01-27T09:43:42;7.69;118.99
16505;HTU21D;8365;51.030;4.696;2024-01-27T09:46:16;8.12;118.99
16505;HTU21D;8365;51.030;4.696;2024-01-27T09:48:46;8.56;118.99
16505;HTU21D;8365;51.030;4.696;2024-01-27T09:51:17;8.20;118.99
16505;HTU21D;8365;51.030;4.696;2024-01-27T09:53:48;8.82;118.99
16505;HTU21D;8365;51.030;4.696;2024-01-27T09:56:20;9.11;118.99
16505;HTU21D;8365;51.030;4.696;2024-01-27T09:58:51;9.06;118.99
16505;HTU21D;8365;51.030;4.696;2024-01-27T10:01:26;9.46;118.77
16505;HTU21D;8365;51.030;4.696;2024-01-27T10:03:59;9.90;115.35
16505;HTU21D;8365;51.030;4.696;2024-01-27T10:06:30;10.14;115.60
16505;HTU21D;8365;51.030;4.696;2024-01-27T10:09:00;10.30;111.73
16505;HTU21D;8365;51.030;4.696;2024-01-27T10:11:33;10.54;107.96
16505;HTU21D;8365;51.030;4.696;2024-01-27T10:14:09;11.69;105.52
16505;HTU21D;8365;51.030;4.696;2024-01-27T10:16:44;11.00;103.99
16505;HTU21D;8365;51.030;4.696;2024-01-27T10:19:16;11.22;104.51
16505;HTU21D;8365;51.030;4.696;2024-01-27T10:22:00;12.08;100.99
16505;HTU21D;8365;51.030;4.696;2024-01-27T10:24:32;12.60;96.98
16505;HTU21D;8365;51.030;4.696;2024-01-27T10:27:04;11.98;96.10
16505;HTU21D;8365;51.030;4.696;2024-01-27T10:29:34;12.59;94.87
16505;HTU21D;8365;51.030;4.696;2024-01-27T10:32:08;12.02;96.55
16505;HTU21D;8365;51.030;4.696;2024-01-27T10:34:39;12.30;96.52
16505;HTU21D;8365;51.030;4.696;2024-01-27T10:37:12;12.42;93.65
16505;HTU21D;8365;51.030;4.696;2024-01-27T10:39:43;13.16;91.47
16505;HTU21D;8365;51.030;4.696;2024-01-27T10:42:14;12.60;90.38
16505;HTU21D;8365;51.030;4.696;2024-01-27T10:44:45;13.73;87.34
16505;HTU21D;8365;51.030;4.696;2024-01-27T10:47:17;13.25;88.34
16505;HTU21D;8365;51.030;4.696;2024-01-27T10:49:50;13.17;88.39
16505;HTU21D;8365;51.030;4.696;2024-01-27T10:52:23;13.99;85.71
16505;HTU21D;8365;51.030;4.696;2024-01-27T10:55:00;14.06;83.88
16505;HTU21D;8365;51.030;4.696;2024-01-27T10:57:33;13.94;84.64
16505;HTU21D;8365;51.030;4.696;2024-01-27T11:00:04;13.84;84.48
16505;HTU21D;8365;51.030;4.696;2024-01-27T11:02:42;13.73;82.02
16505;HTU21D;8365;51.030;4.696;2024-01-27T11:05:14;14.42;81.54
16505;HTU21D;8365;51.030;4.696;2024-01-27T11:07:46;14.37;81.39
16505;HTU21D;8365;51.030;4.696;2024-01-27T11:10:17;13.63;83.16
16505;HTU21D;8365;51.030;4.696;2024-01-27T11:12:48;13.56;85.19
16505;HTU21D;8365;51.030;4.696;2024-01-27T11:15:19;13.89;83.99
16505;HTU21D;8365;51.030;4.696;2024-01-27T11:17:49;13.65;81.40
16505;HTU21D;8365;51.030;4.696;2024-01-27T11:20:20;14.56;81.07
16505;HTU21D;8365;51.030;4.696;2024-01-27T11:22:50;14.81;79.40
16505;HTU21D;8365;51.030;4.696;2024-01-27T11:25:22;14.47;80.92
16505;HTU21D;8365;51.030;4.696;2024-01-27T11:27:54;14.65;77.64
16505;HTU21D;8365;51.030;4.696;2024-01-27T11:30:27;14.65;76.47
16505;HTU21D;8365;51.030;4.696;2024-01-27T11:33:00;14.05;76.46
16505;HTU21D;8365;51.030;4.696;2024-01-27T11:35:31;14.01;75.83
16505;HTU21D;8365;51.030;4.696;2024-01-27T11:38:02;14.48;76.19
16505;HTU21D;8365;51.030;4.696;2024-01-27T11:40:32;14.27;75.25
16505;HTU21D;8365;51.030;4.696;2024-01-27T11:43:03;14.47;74.13
16505;HTU21D;8365;51.030;4.696;2024-01-27T11:45:34;13.98;74.63
16505;HTU21D;8365;51.030;4.696;2024-01-27T11:48:04;14.08;75.73
16505;HTU21D;8365;51.030;4.696;2024-01-27T11:50:36;14.86;74.25
16505;HTU21D;8365;51.030;4.696;2024-01-27T11:53:07;14.84;72.40
16505;HTU21D;8365;51.030;4.696;2024-01-27T11:55:39;14.68;71.08
16505;HTU21D;8365;51.030;4.696;2024-01-27T11:58:10;14.86;70.12
16505;HTU21D;8365;51.030;4.696;2024-01-27T12:00:40;14.44;72.00
16505;HTU21D;8365;51.030;4.696;2024-01-27T12:03:11;14.67;69.97
16505;HTU21D;8365;51.030;4.696;2024-01-27T12:05:41;14.40;71.71
16505;HTU21D;8365;51.030;4.696;2024-01-27T12:08:16;14.48;71.92
16505;HTU21D;8365;51.030;4.696;2024-01-27T12:10:47;13.85;74.83
16505;HTU21D;8365;51.030;4.696;2024-01-27T12:13:17;13.63;75.20
16505;HTU21D;8365;51.030;4.696;2024-01-27T12:15:48;14.04;75.70
16505;HTU21D;8365;51.030;4.696;2024-01-27T12:18:21;14.30;74.70
16505;HTU21D;8365;51.030;4.696;2024-01-27T12:20:55;14.62;73.77
16505;HTU21D;8365;51.030;4.696;2024-01-27T12:23:26;14.56;73.22
16505;HTU21D;8365;51.030;4.696;2024-01-27T12:25:59;14.18;76.63
16505;HTU21D;8365;51.030;4.696;2024-01-27T12:28:30;14.25;75.18
16505;HTU21D;8365;51.030;4.696;2024-01-27T12:31:00;13.48;77.21
16505;HTU21D;8365;51.030;4.696;2024-01-27T12:33:33;13.52;79.14
16505;HTU21D;8365;51.030;4.696;2024-01-27T12:36:07;14.00;77.34
16505;HTU21D;8365;51.030;4.696;2024-01-27T12:38:37;13.12;79.40
16505;HTU21D;8365;51.030;4.696;2024-01-27T12:41:08;12.64;84.68
16505;HTU21D;8365;51.030;4.696;2024-01-27T12:43:38;12.72;84.26
16505;HTU21D;8365;51.030;4.696;2024-01-27T12:46:09;13.20;82.07
16505;HTU21D;8365;51.030;4.696;2024-01-27T12:48:41;13.16;81.63
16505;HTU21D;8365;51.030;4.696;2024-01-27T12:51:14;13.03;83.72
16505;HTU21D;8365;51.030;4.696;2024-01-27T12:53:47;13.20;82.73
16505;HTU21D;8365;51.030;4.696;2024-01-27T12:56:17;12.60;83.18
16505;HTU21D;8365;51.030;4.696;2024-01-27T12:58:48;12.60;85.42
16505;HTU21D;8365;51.030;4.696;2024-01-27T13:01:18;11.89;87.96
16505;HTU21D;8365;51.030;4.696;2024-01-27T13:03:49;11.97;89.82
16505;HTU21D;8365;51.030;4.696;2024-01-27T13:06:20;11.70;89.50
16505;HTU21D;8365;51.030;4.696;2024-01-27T13:08:53;11.14;92.26
16505;HTU21D;8365;51.030;4.696;2024-01-27T13:11:24;11.41;92.61
16505;HTU21D;8365;51.030;4.696;2024-01-27T13:13:55;11.55;93.92
16505;HTU21D;8365;51.030;4.696;2024-01-27T13:16:25;11.40;93.56
16505;HTU21D;8365;51.030;4.696;2024-01-27T13:18:56;12.03;91.04
16505;HTU21D;8365;51.030;4.696;2024-01-27T13:21:26;12.26;88.86
16505;HTU21D;8365;51.030;4.696;2024-01-27T13:23:57;11.93;88.67
16505;HTU21D;8365;51.030;4.696;2024-01-27T13:26:28;11.73;89.62
16505;HTU21D;8365;51.030;4.696;2024-01-27T13:29:01;11.94;87.16
16505;HTU21D;8365;51.030;4.696;2024-01-27T13:31:32;11.53;88.76
16505;HTU21D;8365;51.030;4.696;2024-01-27T13:34:03;11.22;90.52
16505;HTU21D;8365;51.030;4.696;2024-01-27T13:36:34;11.12;88.57
16505;HTU21D;8365;51.030;4.696;2024-01-27T13:39:04;11.54;88.73
16505;HTU21D;8365;51.030;4.696;2024-01-27T13:41:35;11.68;88.69
16505;HTU21D;8365;51.030;4.696;2024-01-27T13:44:05;12.11;87.17
16505;HTU21D;8365;51.030;4.696;2024-01-27T13:46:36;12.44;85.78
16505;HTU21D;8365;51.030;4.696;2024-01-27T13:49:09;12.22;84.97
16505;HTU21D;8365;51.030;4.696;2024-01-27T13:51:39;13.03;81.21
16505;HTU21D;8365;51.030;4.696;2024-01-27T13:54:10;13.10;79.60
16505;HTU21D;8365;51.030;4.696;2024-01-27T13:56:40;12.47;81.52
16505;HTU21D;8365;51.030;4.696;2024-01-27T13:59:11;12.88;77.61
16505;HTU21D;8365;51.030;4.696;2024-01-27T14:01:41;13.12;76.80
16505;HTU21D;8365;51.030;4.696;2024-01-27T14:04:12;12.60;78.00
16505;HTU21D;8365;51.030;4.696;2024-01-27T14:06:42;13.58;79.13
16505;HTU21D;8365;51.030;4.696;2024-01-27T14:09:13;13.06;77.51
16505;HTU21D;8365;51.030;4.696;2024-01-27T14:11:44;13.48;75.70
16505;HTU21D;8365;51.030;4.696;2024-01-27T14:14:14;13.61;73.86
16505;HTU21D;8365;51.030;4.696;2024-01-27T14:16:46;13.52;75.51
16505;HTU21D;8365;51.030;4.696;2024-01-27T14:19:16;13.96;74.51
16505;HTU21D;8365;51.030;4.696;2024-01-27T14:21:47;13.34;73.74
16505;HTU21D;8365;51.030;4.696;2024-01-27T14:24:17;13.80;74.23
16505;HTU21D;8365;51.030;4.696;2024-01-27T14:26:48;14.57;72.38
16505;HTU21D;8365;51.030;4.696;2024-01-27T14:29:19;14.65;70.32
16505;HTU21D;8365;51.030;4.696;2024-01-27T14:31:50;15.38;68.16
16505;HTU21D;8365;51.030;4.696;2024-01-27T14:34:20;15.80;65.14
16505;HTU21D;8365;51.030;4.696;2024-01-27T14:36:53;16.74;62.61
16505;HTU21D;8365;51.030;4.696;2024-01-27T14:39:25;15.96;62.50
16505;HTU21D;8365;51.030;4.696;2024-01-27T14:41:55;15.66;64.76
16505;HTU21D;8365;51.030;4.696;2024-01-27T14:44:26;16.37;62.86
16505;HTU21D;8365;51.030;4.696;2024-01-27T14:46:56;16.13;62.63
16505;HTU21D;8365;51.030;4.696;2024-01-27T14:49:27;15.47;64.27
16505;HTU21D;8365;51.030;4.696;2024-01-27T14:51:58;14.60;65.00
16505;HTU21D;8365;51.030;4.696;2024-01-27T14:54:31;14.69;63.96
16505;HTU21D;8365;51.030;4.696;2024-01-27T14:57:02;14.59;66.30
16505;HTU21D;8365;51.030;4.696;2024-01-27T14:59:33;13.26;67.75
16505;HTU21D;8365;51.030;4.696;2024-01-27T15:02:03;13.24;71.29
16505;HTU21D;8365;51.030;4.696;2024-01-27T15:04:34;12.99;70.32
16505;HTU21D;8365;51.030;4.696;2024-01-27T15:07:04;12.16;72.72
16505;HTU21D;8365;51.030;4.696;2024-01-27T15:09:35;12.16;73.11
16505;HTU21D;8365;51.030;4.696;2024-01-27T15:12:06;11.85;74.18
16505;HTU21D;8365;51.030;4.696;2024-01-27T15:14:39;11.45;75.67
16505;HTU21D;8365;51.030;4.696;2024-01-27T15:17:09;11.42;75.60
16505;HTU21D;8365;51.030;4.696;2024-01-27T15:19:40;11.73;76.18
16505;HTU21D;8365;51.030;4.696;2024-01-27T15:22:10;11.52;77.56
16505;HTU21D;8365;51.030;4.696;2024-01-27T15:24:41;11.40;76.53
16505;HTU21D;8365;51.030;4.696;2024-01-27T15:27:11;11.39;79.58
16505;HTU21D;8365;51.030;4.696;2024-01-27T15:29:43;11.12;78.82
16505;HTU21D;8365;51.030;4.696;2024-01-27T15:32:15;11.18;79.74
16505;HTU21D;8365;51.030;4.696;2024-01-27T15:34:51;11.08;80.51
16505;HTU21D;8365;51.030;4.696;2024-01-27T15:37:22;11.05;79.74
16505;HTU21D;8365;51.030;4.696;2024-01-27T15:39:52;11.10;79.94
16505;HTU21D;8365;51.030;4.696;2024-01-27T15:42:23;10.98;79.95
16505;HTU21D;8365;51.030;4.696;2024-01-27T15:44:54;10.87;81.20
16505;HTU21D;8365;51.030;4.696;2024-01-27T15:47:24;10.78;80.46
16505;HTU21D;8365;51.030;4.696;2024-01-27T15:49:55;10.82;80.56
16505;HTU21D;8365;51.030;4.696;2024-01-27T15:52:33;10.87;80.40
16505;HTU21D;8365;51.030;4.696;2024-01-27T15:55:04;10.84;80.41